sensor_id;sensor_type;location;lat;lon;timestamp;P1;durP1;ratioP1;P2;durP2;ratioP2
25922;SDS011;13725;51.170;4.442;2023-07-13T00:02:16;5.10;;;1.45;;
25922;SDS011;13725;51.170;4.442;2023-07-13T00:04:42;7.75;;;2.00;;
25922;SDS011;13725;51.170;4.442;2023-07-13T00:07:08;8.20;;;2.22;;
25922;SDS011;13725;51.170;4.442;2023-07-13T00:09:34;6.28;;;1.77;;
25922;SDS011;13725;51.170;4.442;2023-07-13T00:12:00;7.80;;;2.55;;
25922;SDS011;13725;51.170;4.442;2023-07-13T00:14:28;11.13;;;2.13;;
25922;SDS011;13725;51.170;4.442;2023-07-13T00:16:54;7.65;;;1.83;;
25922;SDS011;13725;51.170;4.442;2023-07-13T00:19:20;8.43;;;1.95;;
25922;SDS011;13725;51.170;4.442;2023-07-13T00:21:46;9.00;;;1.65;;
25922;SDS011;13725;51.170;4.442;2023-07-13T00:24:13;11.05;;;1.83;;
25922;SDS011;13725;51.170;4.442;2023-07-13T00:26:40;11.57;;;1.92;;
25922;SDS011;13725;51.170;4.442;2023-07-13T00:29:09;10.07;;;2.08;;
25922;SDS011;13725;51.170;4.442;2023-07-13T00:31:36;12.95;;;2.08;;
25922;SDS011;13725;51.170;4.442;2023-07-13T00:34:03;7.50;;;2.20;;
25922;SDS011;13725;51.170;4.442;2023-07-13T00:36:29;6.38;;;2.33;;
25922;SDS011;13725;51.170;4.442;2023-07-13T00:38:56;8.82;;;2.40;;
25922;SDS011;13725;51.170;4.442;2023-07-13T00:41:23;9.27;;;2.13;;
25922;SDS011;13725;51.170;4.442;2023-07-13T00:43:48;6.85;;;2.22;;
25922;SDS011;13725;51.170;4.442;2023-07-13T00:46:19;9.30;;;2.53;;
25922;SDS011;13725;51.170;4.442;2023-07-13T00:48:47;6.32;;;1.98;;
25922;SDS011;13725;51.170;4.442;2023-07-13T00:51:16;5.10;;;1.77;;
25922;SDS011;13725;51.170;4.442;2023-07-13T00:53:46;5.72;;;1.75;;
25922;SDS011;13725;51.170;4.442;2023-07-13T00:56:11;8.90;;;1.90;;
25922;SDS011;13725;51.170;4.442;2023-07-13T00:58:38;11.27;;;2.20;;
25922;SDS011;13725;51.170;4.442;2023-07-13T01:01:04;8.35;;;2.03;;
25922;SDS011;13725;51.170;4.442;2023-07-13T01:03:30;7.38;;;2.08;;
25922;SDS011;13725;51.170;4.442;2023-07-13T01:05:55;19.17;;;2.42;;
25922;SDS011;13725;51.170;4.442;2023-07-13T01:08:21;8.32;;;1.77;;
25922;SDS011;13725;51.170;4.442;2023-07-13T01:10:51;14.50;;;2.33;;
25922;SDS011;13725;51.170;4.442;2023-07-13T01:13:19;8.52;;;1.80;;
25922;SDS011;13725;51.170;4.442;2023-07-13T01:15:48;7.18;;;2.03;;
25922;SDS011;13725;51.170;4.442;2023-07-13T01:18:18;7.43;;;1.98;;
25922;SDS011;13725;51.170;4.442;2023-07-13T01:20:50;9.90;;;2.20;;
25922;SDS011;13725;51.170;4.442;2023-07-13T01:23:26;9.88;;;2.05;;
25922;SDS011;13725;51.170;4.442;2023-07-13T01:25:54;7.15;;;2.42;;
25922;SDS011;13725;51.170;4.442;2023-07-13T01:28:21;12.02;;;2.38;;
25922;SDS011;13725;51.170;4.442;2023-07-13T01:30:48;8.00;;;2.20;;
25922;SDS011;13725;51.170;4.442;2023-07-13T01:33:15;9.95;;;2.47;;
25922;SDS011;13725;51.170;4.442;2023-07-13T01:35:44;14.57;;;3.00;;
25922;SDS011;13725;51.170;4.442;2023-07-13T01:38:11;10.23;;;2.47;;
25922;SDS011;13725;51.170;4.442;2023-07-13T01:40:40;12.85;;;2.50;;
25922;SDS011;13725;51.170;4.442;2023-07-13T01:43:07;13.20;;;2.83;;
25922;SDS011;13725;51.170;4.442;2023-07-13T01:45:33;9.95;;;2.50;;
25922;SDS011;13725;51.170;4.442;2023-07-13T01:47:59;10.60;;;2.40;;
25922;SDS011;13725;51.170;4.442;2023-07-13T01:50:25;7.35;;;2.38;;
25922;SDS011;13725;51.170;4.442;2023-07-13T01:52:51;9.02;;;2.13;;
25922;SDS011;13725;51.170;4.442;2023-07-13T01:55:17;14.85;;;2.72;;
25922;SDS011;13725;51.170;4.442;2023-07-13T01:57:43;9.85;;;2.35;;
25922;SDS011;13725;51.170;4.442;2023-07-13T02:00:10;10.93;;;2.55;;
25922;SDS011;13725;51.170;4.442;2023-07-13T02:02:42;7.97;;;2.10;;
25922;SDS011;13725;51.170;4.442;2023-07-13T02:05:10;15.45;;;2.20;;
25922;SDS011;13725;51.170;4.442;2023-07-13T02:07:36;12.38;;;2.78;;
25922;SDS011;13725;51.170;4.442;2023-07-13T02:10:03;10.15;;;2.55;;
25922;SDS011;13725;51.170;4.442;2023-07-13T02:12:29;13.70;;;2.70;;
25922;SDS011;13725;51.170;4.442;2023-07-13T02:14:55;8.77;;;2.25;;
25922;SDS011;13725;51.170;4.442;2023-07-13T02:17:21;7.60;;;2.42;;
25922;SDS011;13725;51.170;4.442;2023-07-13T02:19:46;10.93;;;2.42;;
25922;SDS011;13725;51.170;4.442;2023-07-13T02:22:12;9.52;;;2.10;;
25922;SDS011;13725;51.170;4.442;2023-07-13T02:24:38;11.65;;;2.83;;
25922;SDS011;13725;51.170;4.442;2023-07-13T02:27:04;11.05;;;2.83;;
25922;SDS011;13725;51.170;4.442;2023-07-13T02:29:30;9.75;;;2.65;;
25922;SDS011;13725;51.170;4.442;2023-07-13T02:31:56;10.60;;;2.53;;
25922;SDS011;13725;51.170;4.442;2023-07-13T02:34:23;15.68;;;2.53;;
25922;SDS011;13725;51.170;4.442;2023-07-13T02:36:48;7.90;;;2.25;;
25922;SDS011;13725;51.170;4.442;2023-07-13T02:39:14;12.40;;;3.08;;
25922;SDS011;13725;51.170;4.442;2023-07-13T02:41:41;10.05;;;2.65;;
25922;SDS011;13725;51.170;4.442;2023-07-13T02:44:06;13.50;;;2.55;;
25922;SDS011;13725;51.170;4.442;2023-07-13T02:46:34;13.60;;;2.67;;
25922;SDS011;13725;51.170;4.442;2023-07-13T02:49:01;10.63;;;3.10;;
25922;SDS011;13725;51.170;4.442;2023-07-13T02:51:27;17.17;;;2.65;;
25922;SDS011;13725;51.170;4.442;2023-07-13T02:53:53;8.90;;;1.98;;
25922;SDS011;13725;51.170;4.442;2023-07-13T02:56:22;13.68;;;2.33;;
25922;SDS011;13725;51.170;4.442;2023-07-13T02:58:51;10.07;;;2.22;;
25922;SDS011;13725;51.170;4.442;2023-07-13T03:01:17;12.45;;;3.00;;
25922;SDS011;13725;51.170;4.442;2023-07-13T03:03:43;10.27;;;2.40;;
25922;SDS011;13725;51.170;4.442;2023-07-13T03:06:10;10.65;;;2.53;;
25922;SDS011;13725;51.170;4.442;2023-07-13T03:08:45;10.02;;;2.47;;
25922;SDS011;13725;51.170;4.442;2023-07-13T03:11:12;10.50;;;2.42;;
25922;SDS011;13725;51.170;4.442;2023-07-13T03:13:41;11.23;;;2.72;;
25922;SDS011;13725;51.170;4.442;2023-07-13T03:16:08;9.10;;;2.20;;
25922;SDS011;13725;51.170;4.442;2023-07-13T03:18:35;10.43;;;2.60;;
25922;SDS011;13725;51.170;4.442;2023-07-13T03:21:05;15.95;;;2.95;;
25922;SDS011;13725;51.170;4.442;2023-07-13T03:23:31;10.45;;;2.67;;
25922;SDS011;13725;51.170;4.442;2023-07-13T03:26:02;10.98;;;2.75;;
25922;SDS011;13725;51.170;4.442;2023-07-13T03:28:38;14.23;;;2.65;;
25922;SDS011;13725;51.170;4.442;2023-07-13T03:31:09;12.80;;;2.67;;
25922;SDS011;13725;51.170;4.442;2023-07-13T03:33:37;13.13;;;3.00;;
25922;SDS011;13725;51.170;4.442;2023-07-13T03:36:04;9.52;;;2.58;;
25922;SDS011;13725;51.170;4.442;2023-07-13T03:38:32;15.15;;;2.80;;
25922;SDS011;13725;51.170;4.442;2023-07-13T03:40:58;16.38;;;2.70;;
25922;SDS011;13725;51.170;4.442;2023-07-13T03:43:25;9.38;;;2.72;;
25922;SDS011;13725;51.170;4.442;2023-07-13T03:45:51;14.73;;;3.33;;
25922;SDS011;13725;51.170;4.442;2023-07-13T03:48:18;13.18;;;2.80;;
25922;SDS011;13725;51.170;4.442;2023-07-13T03:50:44;10.38;;;3.28;;
25922;SDS011;13725;51.170;4.442;2023-07-13T03:53:10;16.23;;;3.90;;
25922;SDS011;13725;51.170;4.442;2023-07-13T03:55:35;12.75;;;2.95;;
25922;SDS011;13725;51.170;4.442;2023-07-13T04:00:52;12.00;;;4.00;;
25922;SDS011;13725;51.170;4.442;2023-07-13T04:03:18;18.75;;;3.72;;
25922;SDS011;13725;51.170;4.442;2023-07-13T04:05:44;13.52;;;3.80;;
25922;SDS011;13725;51.170;4.442;2023-07-13T04:08:12;16.02;;;3.40;;
25922;SDS011;13725;51.170;4.442;2023-07-13T04:10:38;14.57;;;3.30;;
25922;SDS011;13725;51.170;4.442;2023-07-13T04:13:04;19.02;;;3.28;;
25922;SDS011;13725;51.170;4.442;2023-07-13T04:15:30;17.38;;;3.67;;
25922;SDS011;13725;51.170;4.442;2023-07-13T04:17:57;13.98;;;3.28;;
25922;SDS011;13725;51.170;4.442;2023-07-13T04:20:23;12.55;;;2.85;;
25922;SDS011;13725;51.170;4.442;2023-07-13T04:22:51;13.48;;;3.08;;
25922;SDS011;13725;51.170;4.442;2023-07-13T04:25:18;11.95;;;2.50;;
25922;SDS011;13725;51.170;4.442;2023-07-13T04:27:45;16.92;;;2.80;;
25922;SDS011;13725;51.170;4.442;2023-07-13T04:30:11;16.13;;;2.90;;
25922;SDS011;13725;51.170;4.442;2023-07-13T04:32:37;10.05;;;2.78;;
25922;SDS011;13725;51.170;4.442;2023-07-13T04:35:03;20.52;;;2.90;;
25922;SDS011;13725;51.170;4.442;2023-07-13T04:37:29;10.25;;;2.55;;
25922;SDS011;13725;51.170;4.442;2023-07-13T04:39:55;13.45;;;2.90;;
25922;SDS011;13725;51.170;4.442;2023-07-13T04:42:21;13.98;;;2.90;;
25922;SDS011;13725;51.170;4.442;2023-07-13T04:44:51;11.20;;;2.95;;
25922;SDS011;13725;51.170;4.442;2023-07-13T04:47:17;13.57;;;3.08;;
25922;SDS011;13725;51.170;4.442;2023-07-13T04:49:44;12.40;;;3.70;;
25922;SDS011;13725;51.170;4.442;2023-07-13T04:52:10;19.15;;;3.00;;
25922;SDS011;13725;51.170;4.442;2023-07-13T04:54:37;16.45;;;3.03;;
25922;SDS011;13725;51.170;4.442;2023-07-13T04:57:03;15.60;;;3.00;;
25922;SDS011;13725;51.170;4.442;2023-07-13T04:59:31;12.90;;;3.20;;
25922;SDS011;13725;51.170;4.442;2023-07-13T05:01:58;12.27;;;3.15;;
25922;SDS011;13725;51.170;4.442;2023-07-13T05:04:23;13.73;;;3.47;;
25922;SDS011;13725;51.170;4.442;2023-07-13T05:06:49;11.85;;;3.08;;
25922;SDS011;13725;51.170;4.442;2023-07-13T05:09:15;14.63;;;3.00;;
25922;SDS011;13725;51.170;4.442;2023-07-13T05:11:41;11.18;;;3.05;;
25922;SDS011;13725;51.170;4.442;2023-07-13T05:14:07;13.50;;;2.90;;
25922;SDS011;13725;51.170;4.442;2023-07-13T05:16:34;14.93;;;2.65;;
25922;SDS011;13725;51.170;4.442;2023-07-13T05:19:00;15.10;;;3.90;;
25922;SDS011;13725;51.170;4.442;2023-07-13T05:21:26;14.82;;;3.10;;
25922;SDS011;13725;51.170;4.442;2023-07-13T05:23:52;14.23;;;3.83;;
25922;SDS011;13725;51.170;4.442;2023-07-13T05:26:18;12.65;;;3.17;;
25922;SDS011;13725;51.170;4.442;2023-07-13T05:28:44;19.40;;;3.40;;
25922;SDS011;13725;51.170;4.442;2023-07-13T05:31:10;17.20;;;3.13;;
25922;SDS011;13725;51.170;4.442;2023-07-13T05:33:35;15.10;;;2.85;;
25922;SDS011;13725;51.170;4.442;2023-07-13T05:36:01;13.70;;;3.55;;
25922;SDS011;13725;51.170;4.442;2023-07-13T05:38:27;19.45;;;3.35;;
25922;SDS011;13725;51.170;4.442;2023-07-13T05:40:54;14.30;;;2.72;;
25922;SDS011;13725;51.170;4.442;2023-07-13T05:43:21;17.55;;;3.13;;
25922;SDS011;13725;51.170;4.442;2023-07-13T05:45:47;18.30;;;3.05;;
25922;SDS011;13725;51.170;4.442;2023-07-13T05:48:14;12.48;;;3.17;;
25922;SDS011;13725;51.170;4.442;2023-07-13T05:50:39;10.57;;;2.90;;
25922;SDS011;13725;51.170;4.442;2023-07-13T05:53:05;13.77;;;3.00;;
25922;SDS011;13725;51.170;4.442;2023-07-13T05:55:31;14.15;;;3.40;;
25922;SDS011;13725;51.170;4.442;2023-07-13T05:57:57;22.20;;;3.03;;
25922;SDS011;13725;51.170;4.442;2023-07-13T06:00:25;11.20;;;3.65;;
25922;SDS011;13725;51.170;4.442;2023-07-13T06:02:51;16.33;;;3.10;;
25922;SDS011;13725;51.170;4.442;2023-07-13T06:05:17;17.63;;;3.38;;
25922;SDS011;13725;51.170;4.442;2023-07-13T06:07:43;17.60;;;3.90;;
25922;SDS011;13725;51.170;4.442;2023-07-13T06:10:09;16.58;;;3.42;;
25922;SDS011;13725;51.170;4.442;2023-07-13T06:12:35;16.75;;;3.80;;
25922;SDS011;13725;51.170;4.442;2023-07-13T06:15:01;11.02;;;2.70;;
25922;SDS011;13725;51.170;4.442;2023-07-13T06:17:28;13.38;;;2.50;;
25922;SDS011;13725;51.170;4.442;2023-07-13T06:19:53;17.33;;;2.80;;
25922;SDS011;13725;51.170;4.442;2023-07-13T06:22:19;9.70;;;3.13;;
25922;SDS011;13725;51.170;4.442;2023-07-13T06:24:45;16.60;;;3.88;;
25922;SDS011;13725;51.170;4.442;2023-07-13T06:27:10;18.50;;;3.60;;
25922;SDS011;13725;51.170;4.442;2023-07-13T06:29:36;15.18;;;2.85;;
25922;SDS011;13725;51.170;4.442;2023-07-13T06:32:02;14.23;;;2.85;;
25922;SDS011;13725;51.170;4.442;2023-07-13T06:34:28;16.20;;;2.88;;
25922;SDS011;13725;51.170;4.442;2023-07-13T06:36:54;15.90;;;3.30;;
25922;SDS011;13725;51.170;4.442;2023-07-13T06:39:19;13.90;;;3.10;;
25922;SDS011;13725;51.170;4.442;2023-07-13T06:41:47;16.35;;;2.85;;
25922;SDS011;13725;51.170;4.442;2023-07-13T06:44:13;14.50;;;2.65;;
25922;SDS011;13725;51.170;4.442;2023-07-13T06:46:39;13.48;;;2.88;;
25922;SDS011;13725;51.170;4.442;2023-07-13T06:49:04;12.90;;;2.90;;
25922;SDS011;13725;51.170;4.442;2023-07-13T06:51:30;17.75;;;3.20;;
25922;SDS011;13725;51.170;4.442;2023-07-13T06:53:56;16.23;;;3.33;;
25922;SDS011;13725;51.170;4.442;2023-07-13T06:56:21;16.92;;;4.00;;
25922;SDS011;13725;51.170;4.442;2023-07-13T06:58:47;12.35;;;3.10;;
25922;SDS011;13725;51.170;4.442;2023-07-13T07:01:13;12.23;;;3.67;;
25922;SDS011;13725;51.170;4.442;2023-07-13T07:03:39;7.68;;;2.83;;
25922;SDS011;13725;51.170;4.442;2023-07-13T07:06:21;8.35;;;2.58;;
25922;SDS011;13725;51.170;4.442;2023-07-13T07:08:51;9.60;;;3.45;;
25922;SDS011;13725;51.170;4.442;2023-07-13T07:11:18;13.40;;;3.08;;
25922;SDS011;13725;51.170;4.442;2023-07-13T07:13:47;9.90;;;2.70;;
25922;SDS011;13725;51.170;4.442;2023-07-13T07:16:13;14.60;;;3.05;;
25922;SDS011;13725;51.170;4.442;2023-07-13T07:18:39;17.85;;;3.63;;
25922;SDS011;13725;51.170;4.442;2023-07-13T07:21:05;17.73;;;3.88;;
25922;SDS011;13725;51.170;4.442;2023-07-13T07:23:31;15.52;;;3.38;;
25922;SDS011;13725;51.170;4.442;2023-07-13T07:25:57;11.02;;;2.72;;
25922;SDS011;13725;51.170;4.442;2023-07-13T07:28:23;10.38;;;2.85;;
25922;SDS011;13725;51.170;4.442;2023-07-13T07:30:52;16.52;;;3.00;;
25922;SDS011;13725;51.170;4.442;2023-07-13T07:33:18;17.05;;;3.17;;
25922;SDS011;13725;51.170;4.442;2023-07-13T07:35:44;12.90;;;4.10;;
25922;SDS011;13725;51.170;4.442;2023-07-13T07:38:10;13.82;;;3.28;;
25922;SDS011;13725;51.170;4.442;2023-07-13T07:40:39;14.23;;;2.97;;
25922;SDS011;13725;51.170;4.442;2023-07-13T07:43:06;11.48;;;3.03;;
25922;SDS011;13725;51.170;4.442;2023-07-13T07:45:33;11.32;;;3.03;;
25922;SDS011;13725;51.170;4.442;2023-07-13T07:47:59;12.13;;;2.97;;
25922;SDS011;13725;51.170;4.442;2023-07-13T07:50:26;15.15;;;2.92;;
25922;SDS011;13725;51.170;4.442;2023-07-13T07:52:54;15.98;;;2.70;;
25922;SDS011;13725;51.170;4.442;2023-07-13T07:55:23;12.77;;;3.22;;
25922;SDS011;13725;51.170;4.442;2023-07-13T07:57:51;11.88;;;3.20;;
25922;SDS011;13725;51.170;4.442;2023-07-13T08:00:17;11.30;;;2.78;;
25922;SDS011;13725;51.170;4.442;2023-07-13T08:02:45;10.27;;;3.13;;
25922;SDS011;13725;51.170;4.442;2023-07-13T08:05:11;14.10;;;2.80;;
25922;SDS011;13725;51.170;4.442;2023-07-13T08:07:37;13.15;;;3.35;;
25922;SDS011;13725;51.170;4.442;2023-07-13T08:10:04;9.18;;;2.65;;
25922;SDS011;13725;51.170;4.442;2023-07-13T08:12:40;12.85;;;3.15;;
25922;SDS011;13725;51.170;4.442;2023-07-13T08:15:09;11.32;;;2.95;;
25922;SDS011;13725;51.170;4.442;2023-07-13T08:17:36;15.13;;;3.05;;
25922;SDS011;13725;51.170;4.442;2023-07-13T08:20:02;14.05;;;3.45;;
25922;SDS011;13725;51.170;4.442;2023-07-13T08:22:28;15.02;;;2.95;;
25922;SDS011;13725;51.170;4.442;2023-07-13T08:24:54;14.88;;;2.40;;
25922;SDS011;13725;51.170;4.442;2023-07-13T08:27:23;9.00;;;2.53;;
25922;SDS011;13725;51.170;4.442;2023-07-13T08:29:49;10.40;;;2.20;;
25922;SDS011;13725;51.170;4.442;2023-07-13T08:32:16;11.18;;;2.53;;
25922;SDS011;13725;51.170;4.442;2023-07-13T08:34:43;12.23;;;2.78;;
25922;SDS011;13725;51.170;4.442;2023-07-13T08:37:09;9.20;;;2.65;;
25922;SDS011;13725;51.170;4.442;2023-07-13T08:39:35;8.52;;;2.38;;
25922;SDS011;13725;51.170;4.442;2023-07-13T08:42:03;6.57;;;2.38;;
25922;SDS011;13725;51.170;4.442;2023-07-13T08:48:19;8.48;;;2.22;;
25922;SDS011;13725;51.170;4.442;2023-07-13T08:50:53;5.72;;;2.15;;
25922;SDS011;13725;51.170;4.442;2023-07-13T08:53:27;7.97;;;2.17;;
25922;SDS011;13725;51.170;4.442;2023-07-13T08:55:59;8.63;;;2.38;;
25922;SDS011;13725;51.170;4.442;2023-07-13T08:58:26;6.57;;;3.38;;
25922;SDS011;13725;51.170;4.442;2023-07-13T09:04:01;6.75;;;2.10;;
25922;SDS011;13725;51.170;4.442;2023-07-13T09:09:55;5.95;;;1.88;;
25922;SDS011;13725;51.170;4.442;2023-07-13T09:15:23;9.70;;;2.22;;
25922;SDS011;13725;51.170;4.442;2023-07-13T09:17:51;8.07;;;2.05;;
25922;SDS011;13725;51.170;4.442;2023-07-13T09:22:59;6.88;;;2.05;;
25922;SDS011;13725;51.170;4.442;2023-07-13T09:27:58;5.25;;;1.63;;
25922;SDS011;13725;51.170;4.442;2023-07-13T09:30:35;7.30;;;1.90;;
25922;SDS011;13725;51.170;4.442;2023-07-13T09:33:09;7.40;;;2.17;;
25922;SDS011;13725;51.170;4.442;2023-07-13T09:35:35;8.25;;;1.83;;
25922;SDS011;13725;51.170;4.442;2023-07-13T09:38:11;7.88;;;2.10;;
25922;SDS011;13725;51.170;4.442;2023-07-13T09:44:08;10.32;;;2.22;;
25922;SDS011;13725;51.170;4.442;2023-07-13T09:46:38;10.90;;;2.28;;
25922;SDS011;13725;51.170;4.442;2023-07-13T09:49:12;11.85;;;3.10;;
25922;SDS011;13725;51.170;4.442;2023-07-13T09:51:38;9.65;;;2.53;;
25922;SDS011;13725;51.170;4.442;2023-07-13T09:54:20;11.70;;;1.95;;
25922;SDS011;13725;51.170;4.442;2023-07-13T09:56:53;9.02;;;2.40;;
25922;SDS011;13725;51.170;4.442;2023-07-13T09:59:26;7.55;;;2.22;;
25922;SDS011;13725;51.170;4.442;2023-07-13T10:02:01;7.05;;;2.88;;
25922;SDS011;13725;51.170;4.442;2023-07-13T10:04:31;6.75;;;2.13;;
25922;SDS011;13725;51.170;4.442;2023-07-13T10:07:05;15.25;;;3.60;;
25922;SDS011;13725;51.170;4.442;2023-07-13T10:09:32;9.90;;;3.00;;
25922;SDS011;13725;51.170;4.442;2023-07-13T10:11:58;9.50;;;2.10;;
25922;SDS011;13725;51.170;4.442;2023-07-13T10:14:24;11.30;;;2.92;;
25922;SDS011;13725;51.170;4.442;2023-07-13T10:16:52;7.65;;;2.38;;
25922;SDS011;13725;51.170;4.442;2023-07-13T10:19:29;11.23;;;3.00;;
25922;SDS011;13725;51.170;4.442;2023-07-13T10:22:22;8.23;;;2.70;;
25922;SDS011;13725;51.170;4.442;2023-07-13T10:24:54;9.75;;;2.58;;
25922;SDS011;13725;51.170;4.442;2023-07-13T10:27:28;7.78;;;2.33;;
25922;SDS011;13725;51.170;4.442;2023-07-13T10:30:06;9.45;;;2.03;;
25922;SDS011;13725;51.170;4.442;2023-07-13T10:32:35;8.07;;;2.25;;
25922;SDS011;13725;51.170;4.442;2023-07-13T10:35:01;10.00;;;2.13;;
25922;SDS011;13725;51.170;4.442;2023-07-13T10:37:34;7.22;;;2.20;;
25922;SDS011;13725;51.170;4.442;2023-07-13T10:40:12;7.68;;;1.90;;
25922;SDS011;13725;51.170;4.442;2023-07-13T10:42:42;4.95;;;1.92;;
25922;SDS011;13725;51.170;4.442;2023-07-13T10:45:20;5.93;;;1.50;;
25922;SDS011;13725;51.170;4.442;2023-07-13T10:47:47;6.72;;;2.38;;
25922;SDS011;13725;51.170;4.442;2023-07-13T10:50:17;6.43;;;1.90;;
25922;SDS011;13725;51.170;4.442;2023-07-13T10:52:49;4.18;;;1.45;;
25922;SDS011;13725;51.170;4.442;2023-07-13T11:01:04;7.28;;;2.08;;
25922;SDS011;13725;51.170;4.442;2023-07-13T11:11:47;6.07;;;1.52;;
25922;SDS011;13725;51.170;4.442;2023-07-13T11:22:45;5.43;;;1.83;;
25922;SDS011;13725;51.170;4.442;2023-07-13T11:27:51;7.75;;;2.22;;
25922;SDS011;13725;51.170;4.442;2023-07-13T11:33:12;6.53;;;1.98;;
25922;SDS011;13725;51.170;4.442;2023-07-13T11:35:51;8.07;;;2.35;;
25922;SDS011;13725;51.170;4.442;2023-07-13T11:41:29;8.27;;;2.30;;
25922;SDS011;13725;51.170;4.442;2023-07-13T11:44:10;6.35;;;2.25;;
25922;SDS011;13725;51.170;4.442;2023-07-13T11:46:38;14.15;;;3.03;;
25922;SDS011;13725;51.170;4.442;2023-07-13T11:49:11;5.05;;;2.47;;
25922;SDS011;13725;51.170;4.442;2023-07-13T11:51:40;10.38;;;2.75;;
25922;SDS011;13725;51.170;4.442;2023-07-13T11:54:19;6.63;;;2.85;;
25922;SDS011;13725;51.170;4.442;2023-07-13T11:57:16;6.55;;;3.90;;
25922;SDS011;13725;51.170;4.442;2023-07-13T11:59:56;9.80;;;3.97;;
25922;SDS011;13725;51.170;4.442;2023-07-13T12:02:35;9.60;;;3.55;;
25922;SDS011;13725;51.170;4.442;2023-07-13T12:05:04;8.80;;;3.50;;
25922;SDS011;13725;51.170;4.442;2023-07-13T12:07:32;12.68;;;3.08;;
25922;SDS011;13725;51.170;4.442;2023-07-13T12:10:15;7.82;;;3.38;;
25922;SDS011;13725;51.170;4.442;2023-07-13T12:12:52;7.15;;;2.65;;
25922;SDS011;13725;51.170;4.442;2023-07-13T12:15:21;4.40;;;2.33;;
25922;SDS011;13725;51.170;4.442;2023-07-13T12:17:48;5.47;;;2.55;;
25922;SDS011;13725;51.170;4.442;2023-07-13T12:20:22;7.10;;;2.60;;
25922;SDS011;13725;51.170;4.442;2023-07-13T12:22:50;10.45;;;3.20;;
25922;SDS011;13725;51.170;4.442;2023-07-13T12:25:17;4.65;;;2.33;;
25922;SDS011;13725;51.170;4.442;2023-07-13T12:27:48;4.75;;;2.60;;
25922;SDS011;13725;51.170;4.442;2023-07-13T12:33:00;3.78;;;2.35;;
25922;SDS011;13725;51.170;4.442;2023-07-13T12:35:40;4.78;;;1.90;;
25922;SDS011;13725;51.170;4.442;2023-07-13T12:38:14;5.90;;;2.45;;
25922;SDS011;13725;51.170;4.442;2023-07-13T12:40:41;3.80;;;1.95;;
25922;SDS011;13725;51.170;4.442;2023-07-13T12:43:13;5.78;;;2.03;;
25922;SDS011;13725;51.170;4.442;2023-07-13T12:48:21;6.85;;;2.08;;
25922;SDS011;13725;51.170;4.442;2023-07-13T12:50:47;7.63;;;2.67;;
25922;SDS011;13725;51.170;4.442;2023-07-13T12:53:17;3.67;;;2.40;;
25922;SDS011;13725;51.170;4.442;2023-07-13T12:55:56;5.85;;;2.40;;
25922;SDS011;13725;51.170;4.442;2023-07-13T13:00:56;3.90;;;2.05;;
25922;SDS011;13725;51.170;4.442;2023-07-13T13:06:01;4.75;;;1.63;;
25922;SDS011;13725;51.170;4.442;2023-07-13T13:08:35;4.90;;;2.15;;
25922;SDS011;13725;51.170;4.442;2023-07-13T13:11:02;7.68;;;2.15;;
25922;SDS011;13725;51.170;4.442;2023-07-13T13:13:28;5.97;;;2.10;;
25922;SDS011;13725;51.170;4.442;2023-07-13T13:15:54;3.97;;;1.65;;
25922;SDS011;13725;51.170;4.442;2023-07-13T13:18:21;3.28;;;1.75;;
25922;SDS011;13725;51.170;4.442;2023-07-13T13:20:49;5.55;;;1.65;;
25922;SDS011;13725;51.170;4.442;2023-07-13T13:23:16;4.78;;;1.90;;
25922;SDS011;13725;51.170;4.442;2023-07-13T13:25:49;7.55;;;1.90;;
25922;SDS011;13725;51.170;4.442;2023-07-13T13:28:19;5.97;;;1.90;;
25922;SDS011;13725;51.170;4.442;2023-07-13T13:30:46;5.75;;;1.83;;
25922;SDS011;13725;51.170;4.442;2023-07-13T13:33:14;6.47;;;1.70;;
25922;SDS011;13725;51.170;4.442;2023-07-13T13:35:41;5.70;;;1.45;;
25922;SDS011;13725;51.170;4.442;2023-07-13T13:38:09;3.97;;;1.92;;
25922;SDS011;13725;51.170;4.442;2023-07-13T13:40:44;5.60;;;1.50;;
25922;SDS011;13725;51.170;4.442;2023-07-13T13:43:17;6.03;;;1.83;;
25922;SDS011;13725;51.170;4.442;2023-07-13T13:45:45;4.35;;;1.80;;
25922;SDS011;13725;51.170;4.442;2023-07-13T13:48:15;8.52;;;1.98;;
25922;SDS011;13725;51.170;4.442;2023-07-13T13:50:43;4.68;;;1.85;;
25922;SDS011;13725;51.170;4.442;2023-07-13T13:53:10;5.15;;;1.75;;
25922;SDS011;13725;51.170;4.442;2023-07-13T13:55:38;3.30;;;1.33;;
25922;SDS011;13725;51.170;4.442;2023-07-13T13:58:03;4.45;;;1.88;;
25922;SDS011;13725;51.170;4.442;2023-07-13T14:00:29;3.88;;;1.52;;
25922;SDS011;13725;51.170;4.442;2023-07-13T14:02:55;6.65;;;2.72;;
25922;SDS011;13725;51.170;4.442;2023-07-13T14:05:23;5.13;;;1.77;;
25922;SDS011;13725;51.170;4.442;2023-07-13T14:07:53;3.78;;;1.55;;
25922;SDS011;13725;51.170;4.442;2023-07-13T14:10:19;7.35;;;1.65;;
25922;SDS011;13725;51.170;4.442;2023-07-13T14:12:46;5.22;;;1.58;;
25922;SDS011;13725;51.170;4.442;2023-07-13T14:15:28;5.63;;;1.13;;
25922;SDS011;13725;51.170;4.442;2023-07-13T14:17:57;6.57;;;1.90;;
25922;SDS011;13725;51.170;4.442;2023-07-13T14:20:23;7.47;;;1.83;;
25922;SDS011;13725;51.170;4.442;2023-07-13T14:22:51;4.38;;;1.90;;
25922;SDS011;13725;51.170;4.442;2023-07-13T14:25:18;6.32;;;1.58;;
25922;SDS011;13725;51.170;4.442;2023-07-13T14:27:45;4.07;;;1.50;;
25922;SDS011;13725;51.170;4.442;2023-07-13T14:32:44;2.80;;;1.60;;
25922;SDS011;13725;51.170;4.442;2023-07-13T14:35:13;7.85;;;1.90;;
25922;SDS011;13725;51.170;4.442;2023-07-13T14:37:40;3.97;;;1.63;;
25922;SDS011;13725;51.170;4.442;2023-07-13T14:40:15;5.38;;;1.85;;
25922;SDS011;13725;51.170;4.442;2023-07-13T14:42:42;2.85;;;1.40;;
25922;SDS011;13725;51.170;4.442;2023-07-13T14:45:17;5.18;;;1.60;;
25922;SDS011;13725;51.170;4.442;2023-07-13T14:47:45;5.78;;;1.60;;
25922;SDS011;13725;51.170;4.442;2023-07-13T14:50:16;4.13;;;1.58;;
25922;SDS011;13725;51.170;4.442;2023-07-13T14:52:47;4.63;;;1.55;;
25922;SDS011;13725;51.170;4.442;2023-07-13T14:55:14;4.35;;;1.50;;
25922;SDS011;13725;51.170;4.442;2023-07-13T14:57:42;3.80;;;1.67;;
25922;SDS011;13725;51.170;4.442;2023-07-13T15:05:14;4.07;;;1.73;;
25922;SDS011;13725;51.170;4.442;2023-07-13T15:07:45;4.07;;;1.50;;
25922;SDS011;13725;51.170;4.442;2023-07-13T15:10:18;7.30;;;1.63;;
25922;SDS011;13725;51.170;4.442;2023-07-13T15:12:46;4.78;;;1.77;;
25922;SDS011;13725;51.170;4.442;2023-07-13T15:15:12;3.28;;;2.03;;
25922;SDS011;13725;51.170;4.442;2023-07-13T15:17:42;5.13;;;1.83;;
25922;SDS011;13725;51.170;4.442;2023-07-13T15:20:31;5.38;;;2.58;;
25922;SDS011;13725;51.170;4.442;2023-07-13T15:23:00;6.47;;;2.30;;
25922;SDS011;13725;51.170;4.442;2023-07-13T15:25:27;5.57;;;2.22;;
25922;SDS011;13725;51.170;4.442;2023-07-13T15:27:55;5.05;;;1.98;;
25922;SDS011;13725;51.170;4.442;2023-07-13T15:30:24;6.30;;;1.70;;
25922;SDS011;13725;51.170;4.442;2023-07-13T15:32:52;4.38;;;1.92;;
25922;SDS011;13725;51.170;4.442;2023-07-13T15:35:31;8.30;;;2.00;;
25922;SDS011;13725;51.170;4.442;2023-07-13T15:37:58;6.53;;;1.70;;
25922;SDS011;13725;51.170;4.442;2023-07-13T15:40:24;6.30;;;1.95;;
25922;SDS011;13725;51.170;4.442;2023-07-13T15:42:50;6.65;;;1.92;;
25922;SDS011;13725;51.170;4.442;2023-07-13T15:45:22;2.28;;;1.52;;
25922;SDS011;13725;51.170;4.442;2023-07-13T15:47:53;4.80;;;1.98;;
25922;SDS011;13725;51.170;4.442;2023-07-13T15:50:20;4.43;;;1.98;;
25922;SDS011;13725;51.170;4.442;2023-07-13T15:52:49;6.38;;;2.33;;
25922;SDS011;13725;51.170;4.442;2023-07-13T15:55:17;6.60;;;2.10;;
25922;SDS011;13725;51.170;4.442;2023-07-13T15:57:47;3.60;;;1.60;;
25922;SDS011;13725;51.170;4.442;2023-07-13T16:00:24;4.03;;;1.50;;
25922;SDS011;13725;51.170;4.442;2023-07-13T16:02:51;8.02;;;2.17;;